メインページ
METAR-TAF:

METAR-TAF

空港 :

東京ヘリポート, 日本

緯度: 35-38N, 経度: 139-51E, 海抜: 5m

現時点の気象観測

当レポートは1時間34分前の07:00(UTC)に作成
変向風 3kt
気温 9°C
湿度 46%
気圧 1020 hPa
視程10km以上
高度3000ftの雲はほとんどない
高度5000ftの千切れ雲あり
高度8000ftの千切れ雲あり

METAR: RJTI 130700Z VRB03KT 9999 FEW030 BKN050 BKN080 09/M02 Q1020

時間: 17:34 (08:34 UTC)


TAF: 見つかりません

4,000以上の空港の気象観測と天気予報(METAR報とTAF報)

利用可能な観測所は地図上に黄色い丸と赤い丸で示す。

丸の上にカーソルを重ねると観測所名を参照できる。

次にクリックすると気象観測と天気予報を参照できる。

マップの切り替え:黒色「×」印の緑ボタンをクリックして拡大、「-」印の緑ボタンをクリックして縮小、緑色の三角印をクリックして隣りの地図に切り替え


METAR-TAF: